sensor_id;sensor_type;location;lat;lon;timestamp;temperature;humidity
78325;DHT22;67584;51.400;6.692;2023-07-02T00:01:43;17.50;81.10
78325;DHT22;67584;51.400;6.692;2023-07-02T00:04:09;17.40;81.00
78325;DHT22;67584;51.400;6.692;2023-07-02T00:06:35;17.60;81.10
78325;DHT22;67584;51.400;6.692;2023-07-02T00:09:09;17.50;81.00
78325;DHT22;67584;51.400;6.692;2023-07-02T00:11:41;17.50;80.90
78325;DHT22;67584;51.400;6.692;2023-07-02T00:14:08;17.60;80.70
78325;DHT22;67584;51.400;6.692;2023-07-02T00:16:39;17.50;80.40
78325;DHT22;67584;51.400;6.692;2023-07-02T00:19:05;17.80;80.30
78325;DHT22;67584;51.400;6.692;2023-07-02T00:21:31;17.60;80.00
78325;DHT22;67584;51.400;6.692;2023-07-02T00:23:59;17.60;80.10
78325;DHT22;67584;51.400;6.692;2023-07-02T00:26:27;17.50;80.30
78325;DHT22;67584;51.400;6.692;2023-07-02T00:28:54;17.50;80.40
78325;DHT22;67584;51.400;6.692;2023-07-02T00:31:21;17.40;80.20
78325;DHT22;67584;51.400;6.692;2023-07-02T00:33:47;17.40;80.10
78325;DHT22;67584;51.400;6.692;2023-07-02T00:36:13;17.40;80.10
78325;DHT22;67584;51.400;6.692;2023-07-02T00:38:46;17.40;79.90
78325;DHT22;67584;51.400;6.692;2023-07-02T00:41:13;17.40;79.80
78325;DHT22;67584;51.400;6.692;2023-07-02T00:43:39;17.30;80.00
78325;DHT22;67584;51.400;6.692;2023-07-02T00:46:15;17.20;79.90
78325;DHT22;67584;51.400;6.692;2023-07-02T00:48:50;17.20;79.90
78325;DHT22;67584;51.400;6.692;2023-07-02T00:51:24;17.20;79.70
78325;DHT22;67584;51.400;6.692;2023-07-02T00:53:52;17.20;79.60
78325;DHT22;67584;51.400;6.692;2023-07-02T00:56:18;17.20;79.60
78325;DHT22;67584;51.400;6.692;2023-07-02T00:58:48;17.10;79.70
78325;DHT22;67584;51.400;6.692;2023-07-02T01:01:20;17.20;79.80
78325;DHT22;67584;51.400;6.692;2023-07-02T01:04:10;17.10;80.00
78325;DHT22;67584;51.400;6.692;2023-07-02T01:06:38;17.10;80.00
78325;DHT22;67584;51.400;6.692;2023-07-02T01:09:07;17.10;80.10
78325;DHT22;67584;51.400;6.692;2023-07-02T01:11:46;17.00;80.30
78325;DHT22;67584;51.400;6.692;2023-07-02T01:14:36;17.00;80.40
78325;DHT22;67584;51.400;6.692;2023-07-02T01:17:04;17.00;80.40
78325;DHT22;67584;51.400;6.692;2023-07-02T01:19:50;16.80;80.60
78325;DHT22;67584;51.400;6.692;2023-07-02T01:22:21;16.80;80.70
78325;DHT22;67584;51.400;6.692;2023-07-02T01:24:48;16.70;81.20
78325;DHT22;67584;51.400;6.692;2023-07-02T01:27:15;16.60;81.10
78325;DHT22;67584;51.400;6.692;2023-07-02T01:29:41;16.60;81.30
78325;DHT22;67584;51.400;6.692;2023-07-02T01:32:08;16.50;81.60
78325;DHT22;67584;51.400;6.692;2023-07-02T01:34:34;16.60;81.30
78325;DHT22;67584;51.400;6.692;2023-07-02T01:37:02;16.60;81.30
78325;DHT22;67584;51.400;6.692;2023-07-02T01:39:27;16.60;80.80
78325;DHT22;67584;51.400;6.692;2023-07-02T01:41:55;16.70;80.90
78325;DHT22;67584;51.400;6.692;2023-07-02T01:44:22;16.70;80.80
78325;DHT22;67584;51.400;6.692;2023-07-02T01:46:48;16.70;80.50
78325;DHT22;67584;51.400;6.692;2023-07-02T01:49:18;16.70;80.30
78325;DHT22;67584;51.400;6.692;2023-07-02T01:51:53;16.70;79.70
78325;DHT22;67584;51.400;6.692;2023-07-02T01:54:20;16.80;80.00
78325;DHT22;67584;51.400;6.692;2023-07-02T01:56:46;16.70;80.00
78325;DHT22;67584;51.400;6.692;2023-07-02T01:59:12;16.70;79.90
78325;DHT22;67584;51.400;6.692;2023-07-02T02:01:38;16.60;80.10
78325;DHT22;67584;51.400;6.692;2023-07-02T02:04:07;16.70;79.90
78325;DHT22;67584;51.400;6.692;2023-07-02T02:06:34;16.60;80.20
78325;DHT22;67584;51.400;6.692;2023-07-02T02:09:00;16.60;80.20
78325;DHT22;67584;51.400;6.692;2023-07-02T02:11:25;16.60;80.40
78325;DHT22;67584;51.400;6.692;2023-07-02T02:13:51;16.60;80.10
78325;DHT22;67584;51.400;6.692;2023-07-02T02:16:17;16.50;80.30
78325;DHT22;67584;51.400;6.692;2023-07-02T02:18:43;16.50;80.30
78325;DHT22;67584;51.400;6.692;2023-07-02T02:21:08;16.50;80.10
78325;DHT22;67584;51.400;6.692;2023-07-02T02:23:34;16.50;80.10
78325;DHT22;67584;51.400;6.692;2023-07-02T02:26:00;16.40;80.30
78325;DHT22;67584;51.400;6.692;2023-07-02T02:28:25;16.40;80.30
78325;DHT22;67584;51.400;6.692;2023-07-02T02:30:51;16.50;80.30
78325;DHT22;67584;51.400;6.692;2023-07-02T02:33:17;16.40;80.40
78325;DHT22;67584;51.400;6.692;2023-07-02T02:35:44;16.40;80.10
78325;DHT22;67584;51.400;6.692;2023-07-02T02:38:11;16.50;79.90
78325;DHT22;67584;51.400;6.692;2023-07-02T02:40:37;16.50;80.00
78325;DHT22;67584;51.400;6.692;2023-07-02T02:43:06;16.50;80.00
78325;DHT22;67584;51.400;6.692;2023-07-02T02:45:32;16.60;79.70
78325;DHT22;67584;51.400;6.692;2023-07-02T02:47:58;16.50;79.70
78325;DHT22;67584;51.400;6.692;2023-07-02T02:50:23;16.50;79.80
78325;DHT22;67584;51.400;6.692;2023-07-02T02:52:49;16.40;79.60
78325;DHT22;67584;51.400;6.692;2023-07-02T02:55:15;16.40;79.60
78325;DHT22;67584;51.400;6.692;2023-07-02T02:57:40;16.40;79.80
78325;DHT22;67584;51.400;6.692;2023-07-02T03:00:06;16.30;79.90
78325;DHT22;67584;51.400;6.692;2023-07-02T03:02:32;16.30;80.00
78325;DHT22;67584;51.400;6.692;2023-07-02T03:04:58;16.30;80.20
78325;DHT22;67584;51.400;6.692;2023-07-02T03:07:30;16.20;80.40
78325;DHT22;67584;51.400;6.692;2023-07-02T03:09:56;16.20;80.50
78325;DHT22;67584;51.400;6.692;2023-07-02T03:12:22;16.20;80.50
78325;DHT22;67584;51.400;6.692;2023-07-02T03:14:48;16.20;80.80
78325;DHT22;67584;51.400;6.692;2023-07-02T03:17:19;16.20;80.50
78325;DHT22;67584;51.400;6.692;2023-07-02T03:19:45;16.20;80.40
78325;DHT22;67584;51.400;6.692;2023-07-02T03:22:10;16.30;80.60
78325;DHT22;67584;51.400;6.692;2023-07-02T03:24:37;16.20;80.50
78325;DHT22;67584;51.400;6.692;2023-07-02T03:27:03;16.20;80.60
78325;DHT22;67584;51.400;6.692;2023-07-02T03:29:29;16.20;80.50
78325;DHT22;67584;51.400;6.692;2023-07-02T03:31:54;16.10;80.50
78325;DHT22;67584;51.400;6.692;2023-07-02T03:34:20;16.20;80.60
78325;DHT22;67584;51.400;6.692;2023-07-02T03:36:47;16.30;80.80
78325;DHT22;67584;51.400;6.692;2023-07-02T03:39:13;16.30;80.50
78325;DHT22;67584;51.400;6.692;2023-07-02T03:41:39;16.30;80.40
78325;DHT22;67584;51.400;6.692;2023-07-02T03:44:05;16.20;80.50
78325;DHT22;67584;51.400;6.692;2023-07-02T03:46:31;16.20;80.60
78325;DHT22;67584;51.400;6.692;2023-07-02T03:48:57;16.20;80.30
78325;DHT22;67584;51.400;6.692;2023-07-02T03:51:22;16.30;80.50
78325;DHT22;67584;51.400;6.692;2023-07-02T03:53:48;16.30;80.70
78325;DHT22;67584;51.400;6.692;2023-07-02T03:56:14;16.20;80.40
78325;DHT22;67584;51.400;6.692;2023-07-02T03:58:40;16.20;80.50
78325;DHT22;67584;51.400;6.692;2023-07-02T04:01:06;16.20;80.70
78325;DHT22;67584;51.400;6.692;2023-07-02T04:03:32;16.20;80.60
78325;DHT22;67584;51.400;6.692;2023-07-02T04:05:57;16.20;80.40
78325;DHT22;67584;51.400;6.692;2023-07-02T04:08:23;16.20;80.60
78325;DHT22;67584;51.400;6.692;2023-07-02T04:10:50;16.30;80.60
78325;DHT22;67584;51.400;6.692;2023-07-02T04:13:16;16.30;80.80
78325;DHT22;67584;51.400;6.692;2023-07-02T04:15:42;16.30;80.60
78325;DHT22;67584;51.400;6.692;2023-07-02T04:18:07;16.20;80.80
78325;DHT22;67584;51.400;6.692;2023-07-02T04:20:33;16.30;80.70
78325;DHT22;67584;51.400;6.692;2023-07-02T04:22:59;16.40;80.80
78325;DHT22;67584;51.400;6.692;2023-07-02T04:25:25;16.30;80.60
78325;DHT22;67584;51.400;6.692;2023-07-02T04:27:50;16.50;80.40
78325;DHT22;67584;51.400;6.692;2023-07-02T04:30:22;16.40;80.40
78325;DHT22;67584;51.400;6.692;2023-07-02T04:32:47;16.40;80.20
78325;DHT22;67584;51.400;6.692;2023-07-02T04:35:13;16.40;80.20
78325;DHT22;67584;51.400;6.692;2023-07-02T04:37:39;16.50;80.10
78325;DHT22;67584;51.400;6.692;2023-07-02T04:40:06;16.50;80.30
78325;DHT22;67584;51.400;6.692;2023-07-02T04:42:38;16.50;80.20
78325;DHT22;67584;51.400;6.692;2023-07-02T04:45:05;16.60;80.10
78325;DHT22;67584;51.400;6.692;2023-07-02T04:47:31;16.60;79.90
78325;DHT22;67584;51.400;6.692;2023-07-02T04:49:57;16.70;79.90
78325;DHT22;67584;51.400;6.692;2023-07-02T04:52:23;16.70;79.70
78325;DHT22;67584;51.400;6.692;2023-07-02T04:54:48;16.60;79.70
78325;DHT22;67584;51.400;6.692;2023-07-02T04:57:15;16.70;79.60
78325;DHT22;67584;51.400;6.692;2023-07-02T04:59:43;16.80;79.50
78325;DHT22;67584;51.400;6.692;2023-07-02T05:02:10;16.90;79.30
78325;DHT22;67584;51.400;6.692;2023-07-02T05:04:36;17.00;79.10
78325;DHT22;67584;51.400;6.692;2023-07-02T05:07:05;17.00;79.00
78325;DHT22;67584;51.400;6.692;2023-07-02T05:09:31;16.90;78.90
78325;DHT22;67584;51.400;6.692;2023-07-02T05:11:59;16.90;78.70
78325;DHT22;67584;51.400;6.692;2023-07-02T05:14:25;17.00;79.00
78325;DHT22;67584;51.400;6.692;2023-07-02T05:16:51;17.00;79.00
78325;DHT22;67584;51.400;6.692;2023-07-02T05:19:16;16.90;78.70
78325;DHT22;67584;51.400;6.692;2023-07-02T05:21:42;16.90;79.00
78325;DHT22;67584;51.400;6.692;2023-07-02T05:24:08;16.90;79.10
78325;DHT22;67584;51.400;6.692;2023-07-02T05:26:34;17.00;78.90
78325;DHT22;67584;51.400;6.692;2023-07-02T05:29:00;17.00;78.60
78325;DHT22;67584;51.400;6.692;2023-07-02T05:31:26;17.10;78.50
78325;DHT22;67584;51.400;6.692;2023-07-02T05:33:53;17.10;78.50
78325;DHT22;67584;51.400;6.692;2023-07-02T05:36:19;17.10;78.50
78325;DHT22;67584;51.400;6.692;2023-07-02T05:38:45;17.00;78.50
78325;DHT22;67584;51.400;6.692;2023-07-02T05:41:10;17.00;78.40
78325;DHT22;67584;51.400;6.692;2023-07-02T05:43:36;17.10;78.20
78325;DHT22;67584;51.400;6.692;2023-07-02T05:46:01;17.10;77.70
78325;DHT22;67584;51.400;6.692;2023-07-02T05:48:27;17.10;77.50
78325;DHT22;67584;51.400;6.692;2023-07-02T05:50:54;17.20;77.30
78325;DHT22;67584;51.400;6.692;2023-07-02T05:53:20;17.50;76.40
78325;DHT22;67584;51.400;6.692;2023-07-02T05:55:46;17.80;75.70
78325;DHT22;67584;51.400;6.692;2023-07-02T05:58:12;17.90;75.30
78325;DHT22;67584;51.400;6.692;2023-07-02T06:00:38;18.10;75.20
78325;DHT22;67584;51.400;6.692;2023-07-02T06:03:04;18.10;74.10
78325;DHT22;67584;51.400;6.692;2023-07-02T06:05:30;18.10;74.00
78325;DHT22;67584;51.400;6.692;2023-07-02T06:07:56;18.10;73.70
78325;DHT22;67584;51.400;6.692;2023-07-02T06:10:21;18.10;73.60
78325;DHT22;67584;51.400;6.692;2023-07-02T06:12:47;18.00;71.60
78325;DHT22;67584;51.400;6.692;2023-07-02T06:15:13;18.10;72.70
78325;DHT22;67584;51.400;6.692;2023-07-02T06:17:38;18.10;72.90
78325;DHT22;67584;51.400;6.692;2023-07-02T06:20:05;18.10;72.90
78325;DHT22;67584;51.400;6.692;2023-07-02T06:22:31;18.20;71.60
78325;DHT22;67584;51.400;6.692;2023-07-02T06:24:57;18.20;71.00
78325;DHT22;67584;51.400;6.692;2023-07-02T06:27:22;18.10;70.60
78325;DHT22;67584;51.400;6.692;2023-07-02T06:29:48;18.10;69.20
78325;DHT22;67584;51.400;6.692;2023-07-02T06:32:13;18.20;69.40
78325;DHT22;67584;51.400;6.692;2023-07-02T06:34:39;18.40;68.20
78325;DHT22;67584;51.400;6.692;2023-07-02T06:37:05;18.60;68.90
78325;DHT22;67584;51.400;6.692;2023-07-02T06:39:31;18.70;68.80
78325;DHT22;67584;51.400;6.692;2023-07-02T06:41:57;18.90;66.70
78325;DHT22;67584;51.400;6.692;2023-07-02T06:44:28;18.90;66.50
78325;DHT22;67584;51.400;6.692;2023-07-02T06:46:53;18.80;66.20
78325;DHT22;67584;51.400;6.692;2023-07-02T06:49:21;18.90;66.30
78325;DHT22;67584;51.400;6.692;2023-07-02T06:51:46;18.90;66.00
78325;DHT22;67584;51.400;6.692;2023-07-02T06:54:12;19.00;66.20
78325;DHT22;67584;51.400;6.692;2023-07-02T06:56:38;19.20;66.10
78325;DHT22;67584;51.400;6.692;2023-07-02T06:59:04;19.10;65.60
78325;DHT22;67584;51.400;6.692;2023-07-02T07:01:30;18.90;66.60
78325;DHT22;67584;51.400;6.692;2023-07-02T07:03:55;18.90;66.40
78325;DHT22;67584;51.400;6.692;2023-07-02T07:06:21;18.80;66.80
78325;DHT22;67584;51.400;6.692;2023-07-02T07:08:46;19.00;66.60
78325;DHT22;67584;51.400;6.692;2023-07-02T07:11:12;19.10;65.80
78325;DHT22;67584;51.400;6.692;2023-07-02T07:13:38;19.30;66.00
78325;DHT22;67584;51.400;6.692;2023-07-02T07:16:03;19.60;62.20
78325;DHT22;67584;51.400;6.692;2023-07-02T07:18:29;19.90;63.30
78325;DHT22;67584;51.400;6.692;2023-07-02T07:20:55;20.20;61.80
78325;DHT22;67584;51.400;6.692;2023-07-02T07:23:21;20.40;59.50
78325;DHT22;67584;51.400;6.692;2023-07-02T07:25:47;20.50;59.50
78325;DHT22;67584;51.400;6.692;2023-07-02T07:28:12;20.20;59.40
78325;DHT22;67584;51.400;6.692;2023-07-02T07:30:43;20.20;59.40
78325;DHT22;67584;51.400;6.692;2023-07-02T07:33:10;20.20;59.20
78325;DHT22;67584;51.400;6.692;2023-07-02T07:35:35;20.50;55.90
78325;DHT22;67584;51.400;6.692;2023-07-02T07:38:01;20.40;57.30
78325;DHT22;67584;51.400;6.692;2023-07-02T07:40:27;20.60;55.30
78325;DHT22;67584;51.400;6.692;2023-07-02T07:42:53;20.50;54.80
78325;DHT22;67584;51.400;6.692;2023-07-02T07:45:18;20.20;54.80
78325;DHT22;67584;51.400;6.692;2023-07-02T07:47:44;20.20;54.60
78325;DHT22;67584;51.400;6.692;2023-07-02T07:50:09;20.40;54.00
78325;DHT22;67584;51.400;6.692;2023-07-02T07:52:37;20.20;54.00
78325;DHT22;67584;51.400;6.692;2023-07-02T07:55:03;20.20;53.20
78325;DHT22;67584;51.400;6.692;2023-07-02T07:57:29;20.30;51.70
78325;DHT22;67584;51.400;6.692;2023-07-02T07:59:54;20.10;52.70
78325;DHT22;67584;51.400;6.692;2023-07-02T08:02:20;20.70;52.80
78325;DHT22;67584;51.400;6.692;2023-07-02T08:04:48;20.80;50.60
78325;DHT22;67584;51.400;6.692;2023-07-02T08:07:14;20.70;52.40
78325;DHT22;67584;51.400;6.692;2023-07-02T08:09:40;20.40;50.80
78325;DHT22;67584;51.400;6.692;2023-07-02T08:12:06;20.50;49.30
78325;DHT22;67584;51.400;6.692;2023-07-02T08:14:31;20.60;51.00
78325;DHT22;67584;51.400;6.692;2023-07-02T08:16:57;20.90;51.50
78325;DHT22;67584;51.400;6.692;2023-07-02T08:19:23;21.00;50.00
78325;DHT22;67584;51.400;6.692;2023-07-02T08:21:48;21.10;49.30
78325;DHT22;67584;51.400;6.692;2023-07-02T08:24:14;21.20;49.20
78325;DHT22;67584;51.400;6.692;2023-07-02T08:26:40;21.60;49.10
78325;DHT22;67584;51.400;6.692;2023-07-02T08:29:05;21.50;48.10
78325;DHT22;67584;51.400;6.692;2023-07-02T08:31:31;21.30;46.50
78325;DHT22;67584;51.400;6.692;2023-07-02T08:33:57;21.20;48.30
78325;DHT22;67584;51.400;6.692;2023-07-02T08:36:22;21.10;48.00
78325;DHT22;67584;51.400;6.692;2023-07-02T08:38:48;20.90;47.10
78325;DHT22;67584;51.400;6.692;2023-07-02T08:41:14;21.00;47.70
78325;DHT22;67584;51.400;6.692;2023-07-02T08:43:40;21.10;45.90
78325;DHT22;67584;51.400;6.692;2023-07-02T08:46:06;20.60;46.60
78325;DHT22;67584;51.400;6.692;2023-07-02T08:48:34;20.80;47.40
78325;DHT22;67584;51.400;6.692;2023-07-02T08:50:59;20.50;48.80
78325;DHT22;67584;51.400;6.692;2023-07-02T08:53:25;20.40;47.70
78325;DHT22;67584;51.400;6.692;2023-07-02T08:55:55;20.30;49.30
78325;DHT22;67584;51.400;6.692;2023-07-02T08:58:24;20.30;49.60
78325;DHT22;67584;51.400;6.692;2023-07-02T09:01:12;20.80;49.50
78325;DHT22;67584;51.400;6.692;2023-07-02T09:03:39;20.90;48.90
78325;DHT22;67584;51.400;6.692;2023-07-02T09:06:06;21.00;49.00
78325;DHT22;67584;51.400;6.692;2023-07-02T09:08:31;21.50;48.80
78325;DHT22;67584;51.400;6.692;2023-07-02T09:11:11;21.80;47.50
78325;DHT22;67584;51.400;6.692;2023-07-02T09:13:48;22.00;47.20
78325;DHT22;67584;51.400;6.692;2023-07-02T09:16:28;21.80;47.60
78325;DHT22;67584;51.400;6.692;2023-07-02T09:19:05;22.30;47.30
78325;DHT22;67584;51.400;6.692;2023-07-02T09:24:17;22.00;46.80
78325;DHT22;67584;51.400;6.692;2023-07-02T09:26:52;21.70;48.70
78325;DHT22;67584;51.400;6.692;2023-07-02T09:31:50;21.00;49.90
78325;DHT22;67584;51.400;6.692;2023-07-02T09:34:16;20.80;50.30
78325;DHT22;67584;51.400;6.692;2023-07-02T09:36:43;20.60;50.70
78325;DHT22;67584;51.400;6.692;2023-07-02T09:39:20;20.50;50.60
78325;DHT22;67584;51.400;6.692;2023-07-02T09:41:49;20.70;50.60
78325;DHT22;67584;51.400;6.692;2023-07-02T09:44:15;20.90;50.10
78325;DHT22;67584;51.400;6.692;2023-07-02T09:46:48;21.20;50.00
78325;DHT22;67584;51.400;6.692;2023-07-02T09:49:17;21.40;49.10
78325;DHT22;67584;51.400;6.692;2023-07-02T09:51:45;21.30;49.20
78325;DHT22;67584;51.400;6.692;2023-07-02T09:54:12;21.30;46.30
78325;DHT22;67584;51.400;6.692;2023-07-02T09:56:39;21.30;49.10
78325;DHT22;67584;51.400;6.692;2023-07-02T09:59:05;21.50;48.90
78325;DHT22;67584;51.400;6.692;2023-07-02T10:01:30;22.00;46.60
78325;DHT22;67584;51.400;6.692;2023-07-02T10:03:56;22.20;47.00
78325;DHT22;67584;51.400;6.692;2023-07-02T10:06:22;21.90;44.30
78325;DHT22;67584;51.400;6.692;2023-07-02T10:08:55;21.80;45.90
78325;DHT22;67584;51.400;6.692;2023-07-02T10:11:21;22.10;45.60
78325;DHT22;67584;51.400;6.692;2023-07-02T10:13:59;22.60;43.50
78325;DHT22;67584;51.400;6.692;2023-07-02T10:16:25;22.90;43.00
78325;DHT22;67584;51.400;6.692;2023-07-02T10:18:53;23.50;42.50
78325;DHT22;67584;51.400;6.692;2023-07-02T10:21:19;23.00;41.80
78325;DHT22;67584;51.400;6.692;2023-07-02T10:23:45;22.40;42.30
78325;DHT22;67584;51.400;6.692;2023-07-02T10:26:18;22.80;43.40
78325;DHT22;67584;51.400;6.692;2023-07-02T10:28:56;23.40;41.70
78325;DHT22;67584;51.400;6.692;2023-07-02T10:31:22;23.40;42.30
78325;DHT22;67584;51.400;6.692;2023-07-02T10:33:48;23.10;42.90
78325;DHT22;67584;51.400;6.692;2023-07-02T10:36:26;23.00;42.70
78325;DHT22;67584;51.400;6.692;2023-07-02T10:38:51;23.30;43.50
78325;DHT22;67584;51.400;6.692;2023-07-02T10:41:28;23.50;43.10
78325;DHT22;67584;51.400;6.692;2023-07-02T10:43:54;23.00;43.60
78325;DHT22;67584;51.400;6.692;2023-07-02T10:46:21;23.20;42.80
78325;DHT22;67584;51.400;6.692;2023-07-02T10:48:56;23.80;42.10
78325;DHT22;67584;51.400;6.692;2023-07-02T10:51:23;24.70;41.50
78325;DHT22;67584;51.400;6.692;2023-07-02T10:53:59;24.90;38.60
78325;DHT22;67584;51.400;6.692;2023-07-02T10:56:28;24.70;39.60
78325;DHT22;67584;51.400;6.692;2023-07-02T10:58:54;25.90;38.80
78325;DHT22;67584;51.400;6.692;2023-07-02T11:01:25;25.70;37.20
78325;DHT22;67584;51.400;6.692;2023-07-02T11:04:02;25.80;38.60
78325;DHT22;67584;51.400;6.692;2023-07-02T11:06:31;25.10;38.40
78325;DHT22;67584;51.400;6.692;2023-07-02T11:08:59;25.20;38.80
78325;DHT22;67584;51.400;6.692;2023-07-02T11:11:25;24.50;38.60
78325;DHT22;67584;51.400;6.692;2023-07-02T11:13:52;24.40;39.60
78325;DHT22;67584;51.400;6.692;2023-07-02T11:16:26;24.90;37.10
78325;DHT22;67584;51.400;6.692;2023-07-02T11:18:53;24.70;38.80
78325;DHT22;67584;51.400;6.692;2023-07-02T11:21:19;24.60;38.10
78325;DHT22;67584;51.400;6.692;2023-07-02T11:23:45;24.90;38.10
78325;DHT22;67584;51.400;6.692;2023-07-02T11:26:10;25.40;34.60
78325;DHT22;67584;51.400;6.692;2023-07-02T11:28:46;26.40;34.40
78325;DHT22;67584;51.400;6.692;2023-07-02T11:31:12;26.80;33.90
78325;DHT22;67584;51.400;6.692;2023-07-02T11:33:41;25.40;34.70
78325;DHT22;67584;51.400;6.692;2023-07-02T11:36:08;25.00;36.30
78325;DHT22;67584;51.400;6.692;2023-07-02T11:38:45;25.00;36.60
78325;DHT22;67584;51.400;6.692;2023-07-02T11:41:10;25.00;36.40
78325;DHT22;67584;51.400;6.692;2023-07-02T11:43:37;25.10;36.60
78325;DHT22;67584;51.400;6.692;2023-07-02T11:46:04;25.50;36.30
78325;DHT22;67584;51.400;6.692;2023-07-02T11:48:29;26.00;35.70
78325;DHT22;67584;51.400;6.692;2023-07-02T11:50:55;25.70;36.40
78325;DHT22;67584;51.400;6.692;2023-07-02T11:53:21;26.00;35.10
78325;DHT22;67584;51.400;6.692;2023-07-02T11:55:46;25.40;36.00
78325;DHT22;67584;51.400;6.692;2023-07-02T11:58:12;25.70;35.70
78325;DHT22;67584;51.400;6.692;2023-07-02T12:00:37;25.80;36.20
78325;DHT22;67584;51.400;6.692;2023-07-02T12:03:03;25.30;37.00
78325;DHT22;67584;51.400;6.692;2023-07-02T12:05:29;24.60;37.40
78325;DHT22;67584;51.400;6.692;2023-07-02T12:07:55;24.40;38.90
78325;DHT22;67584;51.400;6.692;2023-07-02T12:10:20;24.80;37.90
78325;DHT22;67584;51.400;6.692;2023-07-02T12:12:46;26.10;35.90
78325;DHT22;67584;51.400;6.692;2023-07-02T12:15:12;25.80;34.50
78325;DHT22;67584;51.400;6.692;2023-07-02T12:17:37;24.80;37.00
78325;DHT22;67584;51.400;6.692;2023-07-02T12:20:03;24.10;39.00
78325;DHT22;67584;51.400;6.692;2023-07-02T12:22:29;25.20;37.50
78325;DHT22;67584;51.400;6.692;2023-07-02T12:24:55;25.60;36.60
78325;DHT22;67584;51.400;6.692;2023-07-02T12:27:22;25.60;37.00
78325;DHT22;67584;51.400;6.692;2023-07-02T12:29:48;25.90;36.80
78325;DHT22;67584;51.400;6.692;2023-07-02T12:32:14;26.40;36.20
78325;DHT22;67584;51.400;6.692;2023-07-02T12:34:40;27.70;34.60
78325;DHT22;67584;51.400;6.692;2023-07-02T12:37:06;27.50;33.70
78325;DHT22;67584;51.400;6.692;2023-07-02T12:39:31;26.00;36.70
78325;DHT22;67584;51.400;6.692;2023-07-02T12:41:57;24.70;37.30
78325;DHT22;67584;51.400;6.692;2023-07-02T12:44:23;24.30;39.20
78325;DHT22;67584;51.400;6.692;2023-07-02T12:46:49;24.00;40.00
78325;DHT22;67584;51.400;6.692;2023-07-02T12:49:14;24.00;40.30
78325;DHT22;67584;51.400;6.692;2023-07-02T12:51:40;25.00;38.00
78325;DHT22;67584;51.400;6.692;2023-07-02T12:54:06;26.30;37.10
78325;DHT22;67584;51.400;6.692;2023-07-02T12:56:31;26.20;36.80
78325;DHT22;67584;51.400;6.692;2023-07-02T12:58:57;25.50;37.60
78325;DHT22;67584;51.400;6.692;2023-07-02T13:01:23;25.70;37.50
78325;DHT22;67584;51.400;6.692;2023-07-02T13:03:49;26.50;36.90
78325;DHT22;67584;51.400;6.692;2023-07-02T13:06:15;28.60;34.10
78325;DHT22;67584;51.400;6.692;2023-07-02T13:08:41;28.20;34.10
78325;DHT22;67584;51.400;6.692;2023-07-02T13:11:07;27.30;35.40
78325;DHT22;67584;51.400;6.692;2023-07-02T13:13:34;26.70;36.50
78325;DHT22;67584;51.400;6.692;2023-07-02T13:16:02;26.20;37.70
78325;DHT22;67584;51.400;6.692;2023-07-02T13:18:27;26.40;38.00
78325;DHT22;67584;51.400;6.692;2023-07-02T13:20:53;27.50;35.80
78325;DHT22;67584;51.400;6.692;2023-07-02T13:23:19;27.20;36.30
78325;DHT22;67584;51.400;6.692;2023-07-02T13:25:44;26.50;37.20
78325;DHT22;67584;51.400;6.692;2023-07-02T13:28:10;26.40;37.20
78325;DHT22;67584;51.400;6.692;2023-07-02T13:30:36;27.40;36.50
78325;DHT22;67584;51.400;6.692;2023-07-02T13:33:01;29.10;34.30
78325;DHT22;67584;51.400;6.692;2023-07-02T13:35:27;30.40;31.60
78325;DHT22;67584;51.400;6.692;2023-07-02T13:37:53;31.90;30.60
78325;DHT22;67584;51.400;6.692;2023-07-02T13:40:19;31.50;29.40
78325;DHT22;67584;51.400;6.692;2023-07-02T13:42:44;31.10;30.90
78325;DHT22;67584;51.400;6.692;2023-07-02T13:45:10;29.80;32.30
78325;DHT22;67584;51.400;6.692;2023-07-02T13:47:36;30.30;31.00
78325;DHT22;67584;51.400;6.692;2023-07-02T13:50:03;30.40;31.40
78325;DHT22;67584;51.400;6.692;2023-07-02T13:52:32;28.80;32.90
78325;DHT22;67584;51.400;6.692;2023-07-02T13:54:57;28.00;34.50
78325;DHT22;67584;51.400;6.692;2023-07-02T13:57:24;27.30;36.00
78325;DHT22;67584;51.400;6.692;2023-07-02T13:59:50;27.00;36.20
78325;DHT22;67584;51.400;6.692;2023-07-02T14:02:15;28.80;34.80
78325;DHT22;67584;51.400;6.692;2023-07-02T14:04:41;28.90;33.50
78325;DHT22;67584;51.400;6.692;2023-07-02T14:07:07;28.70;33.40
78325;DHT22;67584;51.400;6.692;2023-07-02T14:09:32;27.20;35.40
78325;DHT22;67584;51.400;6.692;2023-07-02T14:11:58;26.20;37.40
78325;DHT22;67584;51.400;6.692;2023-07-02T14:14:24;26.30;36.70
78325;DHT22;67584;51.400;6.692;2023-07-02T14:16:49;27.70;35.60
78325;DHT22;67584;51.400;6.692;2023-07-02T14:19:15;29.30;32.80
78325;DHT22;67584;51.400;6.692;2023-07-02T14:21:42;29.90;32.00
78325;DHT22;67584;51.400;6.692;2023-07-02T14:24:08;30.00;32.50
78325;DHT22;67584;51.400;6.692;2023-07-02T14:26:34;29.10;33.70
78325;DHT22;67584;51.400;6.692;2023-07-02T14:29:00;27.40;35.60
78325;DHT22;67584;51.400;6.692;2023-07-02T14:31:26;26.00;37.30
78325;DHT22;67584;51.400;6.692;2023-07-02T14:33:52;26.10;37.60
78325;DHT22;67584;51.400;6.692;2023-07-02T14:36:17;26.30;37.00
78325;DHT22;67584;51.400;6.692;2023-07-02T14:38:43;28.10;35.30
78325;DHT22;67584;51.400;6.692;2023-07-02T14:41:09;28.30;34.30
78325;DHT22;67584;51.400;6.692;2023-07-02T14:43:34;28.80;34.40
78325;DHT22;67584;51.400;6.692;2023-07-02T14:46:02;30.40;32.30
78325;DHT22;67584;51.400;6.692;2023-07-02T14:48:28;31.80;31.20
78325;DHT22;67584;51.400;6.692;2023-07-02T14:50:57;32.60;29.50
78325;DHT22;67584;51.400;6.692;2023-07-02T14:53:24;30.80;31.30
78325;DHT22;67584;51.400;6.692;2023-07-02T14:55:53;28.80;33.30
78325;DHT22;67584;51.400;6.692;2023-07-02T14:58:18;27.80;35.40
78325;DHT22;67584;51.400;6.692;2023-07-02T15:00:49;29.30;33.00
78325;DHT22;67584;51.400;6.692;2023-07-02T15:03:15;30.10;30.80
78325;DHT22;67584;51.400;6.692;2023-07-02T15:05:42;31.30;31.10
78325;DHT22;67584;51.400;6.692;2023-07-02T15:08:08;31.90;29.70
78325;DHT22;67584;51.400;6.692;2023-07-02T15:10:35;31.50;30.40
78325;DHT22;67584;51.400;6.692;2023-07-02T15:13:07;32.00;29.70
78325;DHT22;67584;51.400;6.692;2023-07-02T15:15:33;32.90;28.90
78325;DHT22;67584;51.400;6.692;2023-07-02T15:17:59;34.60;27.50
78325;DHT22;67584;51.400;6.692;2023-07-02T15:20:25;35.10;27.30
78325;DHT22;67584;51.400;6.692;2023-07-02T15:22:51;34.10;25.30
78325;DHT22;67584;51.400;6.692;2023-07-02T15:25:16;32.60;27.70
78325;DHT22;67584;51.400;6.692;2023-07-02T15:27:42;30.20;30.30
78325;DHT22;67584;51.400;6.692;2023-07-02T15:30:08;30.50;30.10
78325;DHT22;67584;51.400;6.692;2023-07-02T15:32:34;31.30;29.00
78325;DHT22;67584;51.400;6.692;2023-07-02T15:35:00;31.20;29.70